sensor_id;sensor_type;location;lat;lon;timestamp;P1;durP1;ratioP1;P2;durP2;ratioP2
78116;SDS011;69042;59.120;37.904;2024-01-25T00:01:30;10.00;;;3.40;;
78116;SDS011;69042;59.120;37.904;2024-01-25T00:03:56;8.10;;;3.50;;
78116;SDS011;69042;59.120;37.904;2024-01-25T00:06:23;7.95;;;3.40;;
78116;SDS011;69042;59.120;37.904;2024-01-25T00:08:49;7.75;;;3.13;;
78116;SDS011;69042;59.120;37.904;2024-01-25T00:11:15;8.23;;;3.40;;
78116;SDS011;69042;59.120;37.904;2024-01-25T00:13:41;8.90;;;3.75;;
78116;SDS011;69042;59.120;37.904;2024-01-25T00:16:08;8.98;;;3.63;;
78116;SDS011;69042;59.120;37.904;2024-01-25T00:18:34;10.30;;;3.30;;
78116;SDS011;69042;59.120;37.904;2024-01-25T00:21:00;8.68;;;3.50;;
78116;SDS011;69042;59.120;37.904;2024-01-25T00:23:27;9.20;;;3.70;;
78116;SDS011;69042;59.120;37.904;2024-01-25T00:25:53;7.70;;;3.20;;
78116;SDS011;69042;59.120;37.904;2024-01-25T00:28:21;8.40;;;3.63;;
78116;SDS011;69042;59.120;37.904;2024-01-25T00:30:47;8.20;;;3.60;;
78116;SDS011;69042;59.120;37.904;2024-01-25T00:33:14;12.10;;;4.25;;
78116;SDS011;69042;59.120;37.904;2024-01-25T00:35:40;9.10;;;3.97;;
78116;SDS011;69042;59.120;37.904;2024-01-25T00:38:06;10.93;;;3.88;;
78116;SDS011;69042;59.120;37.904;2024-01-25T00:40:33;11.35;;;3.72;;
78116;SDS011;69042;59.120;37.904;2024-01-25T00:43:00;10.00;;;3.55;;
78116;SDS011;69042;59.120;37.904;2024-01-25T00:48:43;10.73;;;3.75;;
78116;SDS011;69042;59.120;37.904;2024-01-25T00:51:11;8.45;;;3.50;;
78116;SDS011;69042;59.120;37.904;2024-01-25T00:53:42;11.80;;;4.35;;
78116;SDS011;69042;59.120;37.904;2024-01-25T00:56:09;9.35;;;3.97;;
78116;SDS011;69042;59.120;37.904;2024-01-25T00:58:37;9.82;;;3.95;;
78116;SDS011;69042;59.120;37.904;2024-01-25T01:01:04;13.43;;;4.10;;
78116;SDS011;69042;59.120;37.904;2024-01-25T01:03:31;10.02;;;3.63;;
78116;SDS011;69042;59.120;37.904;2024-01-25T01:05:58;9.60;;;3.70;;
78116;SDS011;69042;59.120;37.904;2024-01-25T01:08:25;10.18;;;3.50;;
78116;SDS011;69042;59.120;37.904;2024-01-25T01:10:54;7.95;;;3.50;;
78116;SDS011;69042;59.120;37.904;2024-01-25T01:13:20;10.52;;;4.20;;
78116;SDS011;69042;59.120;37.904;2024-01-25T01:15:47;10.07;;;4.00;;
78116;SDS011;69042;59.120;37.904;2024-01-25T01:18:14;7.85;;;3.53;;
78116;SDS011;69042;59.120;37.904;2024-01-25T01:20:40;7.95;;;3.72;;
78116;SDS011;69042;59.120;37.904;2024-01-25T01:23:09;9.93;;;3.80;;
78116;SDS011;69042;59.120;37.904;2024-01-25T01:25:36;10.15;;;3.85;;
78116;SDS011;69042;59.120;37.904;2024-01-25T01:28:03;7.85;;;3.33;;
78116;SDS011;69042;59.120;37.904;2024-01-25T01:30:29;9.43;;;4.07;;
78116;SDS011;69042;59.120;37.904;2024-01-25T01:32:56;10.93;;;3.92;;
78116;SDS011;69042;59.120;37.904;2024-01-25T01:35:24;9.05;;;3.65;;
78116;SDS011;69042;59.120;37.904;2024-01-25T01:37:50;9.18;;;3.85;;
78116;SDS011;69042;59.120;37.904;2024-01-25T01:40:17;7.72;;;3.45;;
78116;SDS011;69042;59.120;37.904;2024-01-25T01:42:44;9.90;;;3.60;;
78116;SDS011;69042;59.120;37.904;2024-01-25T01:45:11;10.27;;;3.83;;
78116;SDS011;69042;59.120;37.904;2024-01-25T01:47:39;9.43;;;3.90;;
78116;SDS011;69042;59.120;37.904;2024-01-25T01:50:06;9.05;;;3.42;;
78116;SDS011;69042;59.120;37.904;2024-01-25T01:52:34;11.65;;;4.05;;
78116;SDS011;69042;59.120;37.904;2024-01-25T01:55:02;11.02;;;3.85;;
78116;SDS011;69042;59.120;37.904;2024-01-25T01:57:29;10.18;;;3.75;;
78116;SDS011;69042;59.120;37.904;2024-01-25T01:59:55;11.32;;;4.40;;
78116;SDS011;69042;59.120;37.904;2024-01-25T02:02:25;8.98;;;3.58;;
78116;SDS011;69042;59.120;37.904;2024-01-25T02:04:52;9.48;;;3.97;;
78116;SDS011;69042;59.120;37.904;2024-01-25T02:07:19;9.52;;;4.15;;
78116;SDS011;69042;59.120;37.904;2024-01-25T02:09:45;10.38;;;3.92;;
78116;SDS011;69042;59.120;37.904;2024-01-25T02:12:14;9.07;;;3.90;;
78116;SDS011;69042;59.120;37.904;2024-01-25T02:14:45;9.15;;;3.95;;
78116;SDS011;69042;59.120;37.904;2024-01-25T02:17:12;10.60;;;3.95;;
78116;SDS011;69042;59.120;37.904;2024-01-25T02:19:38;10.98;;;4.22;;
78116;SDS011;69042;59.120;37.904;2024-01-25T02:22:05;9.13;;;3.30;;
78116;SDS011;69042;59.120;37.904;2024-01-25T02:24:32;9.07;;;3.85;;
78116;SDS011;69042;59.120;37.904;2024-01-25T02:26:58;10.82;;;4.25;;
78116;SDS011;69042;59.120;37.904;2024-01-25T02:29:26;8.70;;;4.05;;
78116;SDS011;69042;59.120;37.904;2024-01-25T02:31:53;9.55;;;3.90;;
78116;SDS011;69042;59.120;37.904;2024-01-25T02:34:20;10.25;;;3.70;;
78116;SDS011;69042;59.120;37.904;2024-01-25T02:36:46;9.10;;;3.70;;
78116;SDS011;69042;59.120;37.904;2024-01-25T02:39:13;8.88;;;4.20;;
78116;SDS011;69042;59.120;37.904;2024-01-25T02:41:39;11.55;;;3.97;;
78116;SDS011;69042;59.120;37.904;2024-01-25T02:44:06;10.13;;;4.00;;
78116;SDS011;69042;59.120;37.904;2024-01-25T02:46:34;11.02;;;4.30;;
78116;SDS011;69042;59.120;37.904;2024-01-25T02:49:02;9.25;;;4.13;;
78116;SDS011;69042;59.120;37.904;2024-01-25T02:51:29;10.45;;;4.30;;
78116;SDS011;69042;59.120;37.904;2024-01-25T02:53:55;12.13;;;4.32;;
78116;SDS011;69042;59.120;37.904;2024-01-25T02:56:23;10.95;;;4.28;;
78116;SDS011;69042;59.120;37.904;2024-01-25T02:58:49;10.18;;;4.20;;
78116;SDS011;69042;59.120;37.904;2024-01-25T03:01:16;11.85;;;4.55;;
78116;SDS011;69042;59.120;37.904;2024-01-25T03:03:43;12.25;;;4.80;;
78116;SDS011;69042;59.120;37.904;2024-01-25T03:06:09;11.23;;;4.22;;
78116;SDS011;69042;59.120;37.904;2024-01-25T03:08:35;10.02;;;4.28;;
78116;SDS011;69042;59.120;37.904;2024-01-25T03:11:03;13.32;;;4.85;;
78116;SDS011;69042;59.120;37.904;2024-01-25T03:15:57;15.55;;;5.60;;
78116;SDS011;69042;59.120;37.904;2024-01-25T03:18:24;13.73;;;5.03;;
78116;SDS011;69042;59.120;37.904;2024-01-25T03:20:51;10.27;;;4.85;;
78116;SDS011;69042;59.120;37.904;2024-01-25T03:23:17;10.40;;;4.40;;
78116;SDS011;69042;59.120;37.904;2024-01-25T03:25:44;11.80;;;4.40;;
78116;SDS011;69042;59.120;37.904;2024-01-25T03:28:12;13.07;;;5.30;;
78116;SDS011;69042;59.120;37.904;2024-01-25T03:30:40;11.50;;;4.93;;
78116;SDS011;69042;59.120;37.904;2024-01-25T03:33:06;14.07;;;4.80;;
78116;SDS011;69042;59.120;37.904;2024-01-25T03:35:33;12.70;;;4.75;;
78116;SDS011;69042;59.120;37.904;2024-01-25T03:37:59;12.38;;;4.95;;
78116;SDS011;69042;59.120;37.904;2024-01-25T03:40:28;11.25;;;4.65;;
78116;SDS011;69042;59.120;37.904;2024-01-25T03:42:55;11.10;;;4.75;;
78116;SDS011;69042;59.120;37.904;2024-01-25T03:45:21;13.07;;;5.25;;
78116;SDS011;69042;59.120;37.904;2024-01-25T03:47:48;12.40;;;4.60;;
78116;SDS011;69042;59.120;37.904;2024-01-25T03:50:14;12.68;;;4.88;;
78116;SDS011;69042;59.120;37.904;2024-01-25T03:52:41;12.63;;;4.97;;
78116;SDS011;69042;59.120;37.904;2024-01-25T03:55:08;11.23;;;4.95;;
78116;SDS011;69042;59.120;37.904;2024-01-25T03:57:34;11.77;;;5.13;;
78116;SDS011;69042;59.120;37.904;2024-01-25T04:00:02;13.98;;;5.45;;
78116;SDS011;69042;59.120;37.904;2024-01-25T04:02:33;14.52;;;5.18;;
78116;SDS011;69042;59.120;37.904;2024-01-25T04:05:00;11.77;;;4.97;;
78116;SDS011;69042;59.120;37.904;2024-01-25T04:07:28;9.43;;;4.28;;
78116;SDS011;69042;59.120;37.904;2024-01-25T04:09:56;13.10;;;5.00;;
78116;SDS011;69042;59.120;37.904;2024-01-25T04:12:22;12.23;;;5.18;;
78116;SDS011;69042;59.120;37.904;2024-01-25T04:14:50;11.93;;;5.13;;
78116;SDS011;69042;59.120;37.904;2024-01-25T04:17:19;14.82;;;5.25;;
78116;SDS011;69042;59.120;37.904;2024-01-25T04:19:45;11.73;;;5.15;;
78116;SDS011;69042;59.120;37.904;2024-01-25T04:22:13;12.27;;;5.75;;
78116;SDS011;69042;59.120;37.904;2024-01-25T04:24:40;11.98;;;4.88;;
78116;SDS011;69042;59.120;37.904;2024-01-25T04:27:07;11.32;;;4.85;;
78116;SDS011;69042;59.120;37.904;2024-01-25T04:29:34;14.48;;;5.13;;
78116;SDS011;69042;59.120;37.904;2024-01-25T04:32:01;13.02;;;5.40;;
78116;SDS011;69042;59.120;37.904;2024-01-25T04:34:28;13.73;;;5.45;;
78116;SDS011;69042;59.120;37.904;2024-01-25T04:36:54;13.13;;;5.35;;
78116;SDS011;69042;59.120;37.904;2024-01-25T04:39:20;14.15;;;5.72;;
78116;SDS011;69042;59.120;37.904;2024-01-25T04:41:48;13.75;;;5.28;;
78116;SDS011;69042;59.120;37.904;2024-01-25T04:44:14;14.00;;;5.60;;
78116;SDS011;69042;59.120;37.904;2024-01-25T04:46:42;12.63;;;5.72;;
78116;SDS011;69042;59.120;37.904;2024-01-25T04:49:09;16.75;;;7.25;;
78116;SDS011;69042;59.120;37.904;2024-01-25T04:51:37;16.98;;;6.32;;
78116;SDS011;69042;59.120;37.904;2024-01-25T04:54:05;13.02;;;5.32;;
78116;SDS011;69042;59.120;37.904;2024-01-25T04:56:33;15.48;;;6.10;;
78116;SDS011;69042;59.120;37.904;2024-01-25T04:58:59;12.88;;;5.30;;
78116;SDS011;69042;59.120;37.904;2024-01-25T05:01:26;13.73;;;5.70;;
78116;SDS011;69042;59.120;37.904;2024-01-25T05:03:53;14.50;;;5.80;;
78116;SDS011;69042;59.120;37.904;2024-01-25T05:06:19;15.70;;;5.53;;
78116;SDS011;69042;59.120;37.904;2024-01-25T05:08:46;17.85;;;7.40;;
78116;SDS011;69042;59.120;37.904;2024-01-25T05:11:13;15.80;;;5.82;;
78116;SDS011;69042;59.120;37.904;2024-01-25T05:13:39;15.63;;;6.38;;
78116;SDS011;69042;59.120;37.904;2024-01-25T05:16:07;17.95;;;6.93;;
78116;SDS011;69042;59.120;37.904;2024-01-25T05:18:34;12.48;;;5.65;;
78116;SDS011;69042;59.120;37.904;2024-01-25T05:21:00;13.35;;;6.13;;
78116;SDS011;69042;59.120;37.904;2024-01-25T05:23:27;12.40;;;5.70;;
78116;SDS011;69042;59.120;37.904;2024-01-25T05:25:55;14.73;;;5.38;;
78116;SDS011;69042;59.120;37.904;2024-01-25T05:28:21;11.82;;;5.35;;
78116;SDS011;69042;59.120;37.904;2024-01-25T05:30:48;14.27;;;5.22;;
78116;SDS011;69042;59.120;37.904;2024-01-25T05:33:14;14.02;;;5.63;;
78116;SDS011;69042;59.120;37.904;2024-01-25T05:35:43;12.35;;;5.22;;
78116;SDS011;69042;59.120;37.904;2024-01-25T05:38:09;11.93;;;5.50;;
78116;SDS011;69042;59.120;37.904;2024-01-25T05:40:36;13.90;;;5.95;;
78116;SDS011;69042;59.120;37.904;2024-01-25T05:43:03;12.75;;;5.70;;
78116;SDS011;69042;59.120;37.904;2024-01-25T05:45:31;13.35;;;5.40;;
78116;SDS011;69042;59.120;37.904;2024-01-25T05:47:59;12.93;;;5.53;;
78116;SDS011;69042;59.120;37.904;2024-01-25T05:50:26;12.98;;;6.07;;
78116;SDS011;69042;59.120;37.904;2024-01-25T05:52:53;12.80;;;5.47;;
78116;SDS011;69042;59.120;37.904;2024-01-25T05:55:19;13.48;;;5.80;;
78116;SDS011;69042;59.120;37.904;2024-01-25T05:57:46;14.80;;;5.80;;
78116;SDS011;69042;59.120;37.904;2024-01-25T06:00:15;12.23;;;5.28;;
78116;SDS011;69042;59.120;37.904;2024-01-25T06:02:43;13.68;;;5.43;;
78116;SDS011;69042;59.120;37.904;2024-01-25T06:05:09;13.70;;;5.65;;
78116;SDS011;69042;59.120;37.904;2024-01-25T06:07:36;12.60;;;5.72;;
78116;SDS011;69042;59.120;37.904;2024-01-25T06:10:02;11.85;;;5.63;;
78116;SDS011;69042;59.120;37.904;2024-01-25T06:12:30;16.15;;;5.82;;
78116;SDS011;69042;59.120;37.904;2024-01-25T06:14:56;13.50;;;5.50;;
78116;SDS011;69042;59.120;37.904;2024-01-25T06:17:22;16.52;;;5.90;;
78116;SDS011;69042;59.120;37.904;2024-01-25T06:19:49;14.30;;;6.03;;
78116;SDS011;69042;59.120;37.904;2024-01-25T06:22:15;13.70;;;5.40;;
78116;SDS011;69042;59.120;37.904;2024-01-25T06:24:43;14.00;;;5.90;;
78116;SDS011;69042;59.120;37.904;2024-01-25T06:27:11;11.90;;;5.55;;
78116;SDS011;69042;59.120;37.904;2024-01-25T06:29:38;10.93;;;4.80;;
78116;SDS011;69042;59.120;37.904;2024-01-25T06:32:05;12.75;;;5.45;;
78116;SDS011;69042;59.120;37.904;2024-01-25T06:34:32;12.63;;;5.53;;
78116;SDS011;69042;59.120;37.904;2024-01-25T06:36:59;15.57;;;6.47;;
78116;SDS011;69042;59.120;37.904;2024-01-25T06:39:26;16.10;;;6.43;;
78116;SDS011;69042;59.120;37.904;2024-01-25T06:41:56;16.85;;;6.07;;
78116;SDS011;69042;59.120;37.904;2024-01-25T06:44:23;14.82;;;6.20;;
78116;SDS011;69042;59.120;37.904;2024-01-25T06:46:49;13.38;;;5.70;;
78116;SDS011;69042;59.120;37.904;2024-01-25T06:49:16;16.05;;;6.65;;
78116;SDS011;69042;59.120;37.904;2024-01-25T06:51:45;11.93;;;5.85;;
78116;SDS011;69042;59.120;37.904;2024-01-25T06:54:12;13.45;;;6.53;;
78116;SDS011;69042;59.120;37.904;2024-01-25T06:56:38;14.32;;;6.22;;
78116;SDS011;69042;59.120;37.904;2024-01-25T06:59:06;13.32;;;6.13;;
78116;SDS011;69042;59.120;37.904;2024-01-25T07:01:32;13.48;;;6.22;;
78116;SDS011;69042;59.120;37.904;2024-01-25T07:03:58;15.52;;;6.78;;
78116;SDS011;69042;59.120;37.904;2024-01-25T07:06:25;13.63;;;6.70;;
78116;SDS011;69042;59.120;37.904;2024-01-25T07:08:53;12.50;;;6.10;;
78116;SDS011;69042;59.120;37.904;2024-01-25T07:11:19;16.20;;;7.10;;
78116;SDS011;69042;59.120;37.904;2024-01-25T07:13:47;13.30;;;6.45;;
78116;SDS011;69042;59.120;37.904;2024-01-25T07:16:13;14.73;;;6.63;;
78116;SDS011;69042;59.120;37.904;2024-01-25T07:18:41;18.70;;;6.80;;
78116;SDS011;69042;59.120;37.904;2024-01-25T07:21:07;14.10;;;6.22;;
78116;SDS011;69042;59.120;37.904;2024-01-25T07:23:35;16.40;;;7.10;;
78116;SDS011;69042;59.120;37.904;2024-01-25T07:26:02;18.77;;;8.00;;
78116;SDS011;69042;59.120;37.904;2024-01-25T07:28:30;16.70;;;6.80;;
78116;SDS011;69042;59.120;37.904;2024-01-25T07:30:58;16.27;;;6.80;;
78116;SDS011;69042;59.120;37.904;2024-01-25T07:33:24;12.90;;;5.90;;
78116;SDS011;69042;59.120;37.904;2024-01-25T07:35:51;18.50;;;7.60;;
78116;SDS011;69042;59.120;37.904;2024-01-25T07:38:17;16.33;;;7.35;;
78116;SDS011;69042;59.120;37.904;2024-01-25T07:40:44;17.02;;;6.70;;
78116;SDS011;69042;59.120;37.904;2024-01-25T07:43:10;12.38;;;6.30;;
78116;SDS011;69042;59.120;37.904;2024-01-25T07:45:37;17.30;;;7.60;;
78116;SDS011;69042;59.120;37.904;2024-01-25T07:48:04;15.98;;;7.00;;
78116;SDS011;69042;59.120;37.904;2024-01-25T07:50:31;15.52;;;6.95;;
78116;SDS011;69042;59.120;37.904;2024-01-25T07:52:58;15.23;;;7.40;;
78116;SDS011;69042;59.120;37.904;2024-01-25T07:55:27;14.68;;;6.63;;
78116;SDS011;69042;59.120;37.904;2024-01-25T07:57:55;16.88;;;6.93;;
78116;SDS011;69042;59.120;37.904;2024-01-25T08:00:21;14.35;;;6.70;;
78116;SDS011;69042;59.120;37.904;2024-01-25T08:02:48;16.10;;;6.78;;
78116;SDS011;69042;59.120;37.904;2024-01-25T08:05:15;15.07;;;6.03;;
78116;SDS011;69042;59.120;37.904;2024-01-25T08:07:42;13.70;;;6.10;;
78116;SDS011;69042;59.120;37.904;2024-01-25T08:10:10;14.88;;;6.68;;
78116;SDS011;69042;59.120;37.904;2024-01-25T08:12:37;15.45;;;7.03;;
78116;SDS011;69042;59.120;37.904;2024-01-25T08:15:05;14.75;;;6.75;;
78116;SDS011;69042;59.120;37.904;2024-01-25T08:17:33;12.07;;;6.13;;
78116;SDS011;69042;59.120;37.904;2024-01-25T08:20:03;13.75;;;6.95;;
78116;SDS011;69042;59.120;37.904;2024-01-25T08:22:34;14.50;;;6.47;;
78116;SDS011;69042;59.120;37.904;2024-01-25T08:25:00;15.18;;;6.68;;
78116;SDS011;69042;59.120;37.904;2024-01-25T08:27:28;16.00;;;7.05;;
78116;SDS011;69042;59.120;37.904;2024-01-25T08:29:54;13.27;;;6.63;;
78116;SDS011;69042;59.120;37.904;2024-01-25T08:32:21;18.15;;;7.53;;
78116;SDS011;69042;59.120;37.904;2024-01-25T08:34:49;13.45;;;6.38;;
78116;SDS011;69042;59.120;37.904;2024-01-25T08:37:16;15.40;;;6.60;;
78116;SDS011;69042;59.120;37.904;2024-01-25T08:39:43;13.75;;;6.30;;
78116;SDS011;69042;59.120;37.904;2024-01-25T08:42:12;15.85;;;8.00;;
78116;SDS011;69042;59.120;37.904;2024-01-25T08:44:40;16.13;;;7.18;;
78116;SDS011;69042;59.120;37.904;2024-01-25T08:47:11;12.45;;;6.10;;
78116;SDS011;69042;59.120;37.904;2024-01-25T08:49:38;14.50;;;7.05;;
78116;SDS011;69042;59.120;37.904;2024-01-25T08:52:05;17.92;;;6.80;;
78116;SDS011;69042;59.120;37.904;2024-01-25T08:54:33;14.57;;;6.40;;
78116;SDS011;69042;59.120;37.904;2024-01-25T08:57:01;13.70;;;6.60;;
78116;SDS011;69042;59.120;37.904;2024-01-25T08:59:28;13.82;;;6.60;;
78116;SDS011;69042;59.120;37.904;2024-01-25T09:01:56;15.27;;;7.25;;
78116;SDS011;69042;59.120;37.904;2024-01-25T09:04:23;15.55;;;6.38;;
78116;SDS011;69042;59.120;37.904;2024-01-25T09:06:49;13.85;;;6.53;;
78116;SDS011;69042;59.120;37.904;2024-01-25T09:09:16;14.45;;;6.55;;
78116;SDS011;69042;59.120;37.904;2024-01-25T09:11:43;15.07;;;6.15;;
78116;SDS011;69042;59.120;37.904;2024-01-25T09:14:10;16.48;;;6.53;;
78116;SDS011;69042;59.120;37.904;2024-01-25T09:16:37;14.07;;;6.50;;
78116;SDS011;69042;59.120;37.904;2024-01-25T09:19:04;12.65;;;5.50;;
78116;SDS011;69042;59.120;37.904;2024-01-25T09:21:31;15.02;;;6.03;;
78116;SDS011;69042;59.120;37.904;2024-01-25T09:23:57;13.50;;;5.60;;
78116;SDS011;69042;59.120;37.904;2024-01-25T09:26:25;15.48;;;6.60;;
78116;SDS011;69042;59.120;37.904;2024-01-25T09:28:52;12.73;;;6.15;;
78116;SDS011;69042;59.120;37.904;2024-01-25T09:31:19;16.38;;;6.68;;
78116;SDS011;69042;59.120;37.904;2024-01-25T09:33:46;13.40;;;6.40;;
78116;SDS011;69042;59.120;37.904;2024-01-25T09:36:13;14.50;;;6.50;;
78116;SDS011;69042;59.120;37.904;2024-01-25T09:38:39;13.63;;;6.53;;
78116;SDS011;69042;59.120;37.904;2024-01-25T09:41:07;12.52;;;5.90;;
78116;SDS011;69042;59.120;37.904;2024-01-25T09:43:35;12.13;;;5.57;;
78116;SDS011;69042;59.120;37.904;2024-01-25T09:46:03;11.32;;;5.28;;
78116;SDS011;69042;59.120;37.904;2024-01-25T09:48:32;11.07;;;5.20;;
78116;SDS011;69042;59.120;37.904;2024-01-25T09:50:59;13.90;;;5.88;;
78116;SDS011;69042;59.120;37.904;2024-01-25T09:53:26;13.30;;;5.95;;
78116;SDS011;69042;59.120;37.904;2024-01-25T09:55:57;12.90;;;5.85;;
78116;SDS011;69042;59.120;37.904;2024-01-25T09:58:31;11.93;;;5.80;;
78116;SDS011;69042;59.120;37.904;2024-01-25T10:01:14;13.00;;;5.57;;
78116;SDS011;69042;59.120;37.904;2024-01-25T10:03:42;11.15;;;5.18;;
78116;SDS011;69042;59.120;37.904;2024-01-25T10:06:13;12.43;;;5.85;;
78116;SDS011;69042;59.120;37.904;2024-01-25T10:08:41;14.20;;;6.97;;
78116;SDS011;69042;59.120;37.904;2024-01-25T10:11:08;11.80;;;5.45;;
78116;SDS011;69042;59.120;37.904;2024-01-25T10:13:42;11.60;;;5.57;;
78116;SDS011;69042;59.120;37.904;2024-01-25T10:16:16;11.82;;;5.78;;
78116;SDS011;69042;59.120;37.904;2024-01-25T10:18:45;12.98;;;6.22;;
78116;SDS011;69042;59.120;37.904;2024-01-25T10:21:14;12.55;;;5.85;;
78116;SDS011;69042;59.120;37.904;2024-01-25T10:23:45;11.18;;;5.30;;
78116;SDS011;69042;59.120;37.904;2024-01-25T10:26:14;13.05;;;6.13;;
78116;SDS011;69042;59.120;37.904;2024-01-25T10:28:52;11.57;;;5.72;;
78116;SDS011;69042;59.120;37.904;2024-01-25T10:31:22;12.55;;;6.03;;
78116;SDS011;69042;59.120;37.904;2024-01-25T10:33:51;11.55;;;5.65;;
78116;SDS011;69042;59.120;37.904;2024-01-25T10:36:22;11.48;;;5.72;;
78116;SDS011;69042;59.120;37.904;2024-01-25T10:38:49;13.38;;;5.45;;
78116;SDS011;69042;59.120;37.904;2024-01-25T10:41:20;13.35;;;6.03;;
78116;SDS011;69042;59.120;37.904;2024-01-25T10:43:49;13.13;;;6.13;;
78116;SDS011;69042;59.120;37.904;2024-01-25T10:46:21;11.63;;;5.80;;
78116;SDS011;69042;59.120;37.904;2024-01-25T10:48:48;12.88;;;5.80;;
78116;SDS011;69042;59.120;37.904;2024-01-25T10:51:17;13.23;;;5.78;;
78116;SDS011;69042;59.120;37.904;2024-01-25T10:53:47;11.82;;;5.45;;
78116;SDS011;69042;59.120;37.904;2024-01-25T10:56:16;12.43;;;5.78;;
78116;SDS011;69042;59.120;37.904;2024-01-25T10:58:43;16.52;;;7.85;;
78116;SDS011;69042;59.120;37.904;2024-01-25T11:01:10;11.20;;;5.10;;
78116;SDS011;69042;59.120;37.904;2024-01-25T11:03:36;15.55;;;6.40;;
78116;SDS011;69042;59.120;37.904;2024-01-25T11:06:07;12.02;;;5.68;;
78116;SDS011;69042;59.120;37.904;2024-01-25T11:08:37;11.38;;;5.65;;
78116;SDS011;69042;59.120;37.904;2024-01-25T11:11:08;11.80;;;5.63;;
78116;SDS011;69042;59.120;37.904;2024-01-25T11:13:41;14.00;;;6.25;;
78116;SDS011;69042;59.120;37.904;2024-01-25T11:18:56;13.90;;;5.93;;
78116;SDS011;69042;59.120;37.904;2024-01-25T11:24:16;12.88;;;5.55;;
78116;SDS011;69042;59.120;37.904;2024-01-25T11:26:48;13.25;;;5.70;;
78116;SDS011;69042;59.120;37.904;2024-01-25T11:29:18;12.82;;;5.65;;
78116;SDS011;69042;59.120;37.904;2024-01-25T11:31:47;13.75;;;5.80;;
78116;SDS011;69042;59.120;37.904;2024-01-25T11:34:14;12.73;;;5.93;;
78116;SDS011;69042;59.120;37.904;2024-01-25T11:36:44;16.20;;;7.13;;
78116;SDS011;69042;59.120;37.904;2024-01-25T11:39:11;13.00;;;5.63;;
78116;SDS011;69042;59.120;37.904;2024-01-25T11:41:38;12.65;;;5.80;;
78116;SDS011;69042;59.120;37.904;2024-01-25T11:44:05;12.65;;;5.45;;
78116;SDS011;69042;59.120;37.904;2024-01-25T11:46:31;11.02;;;4.75;;
78116;SDS011;69042;59.120;37.904;2024-01-25T11:48:58;12.90;;;5.80;;
78116;SDS011;69042;59.120;37.904;2024-01-25T11:51:25;12.73;;;5.55;;
78116;SDS011;69042;59.120;37.904;2024-01-25T11:53:52;14.38;;;6.13;;
78116;SDS011;69042;59.120;37.904;2024-01-25T11:56:26;15.02;;;6.72;;
78116;SDS011;69042;59.120;37.904;2024-01-25T11:58:54;13.65;;;6.03;;
78116;SDS011;69042;59.120;37.904;2024-01-25T12:01:24;13.80;;;6.40;;
78116;SDS011;69042;59.120;37.904;2024-01-25T12:03:51;13.15;;;5.82;;
78116;SDS011;69042;59.120;37.904;2024-01-25T12:06:19;12.10;;;5.70;;
78116;SDS011;69042;59.120;37.904;2024-01-25T12:08:45;14.10;;;5.97;;
78116;SDS011;69042;59.120;37.904;2024-01-25T12:11:14;13.82;;;6.35;;
78116;SDS011;69042;59.120;37.904;2024-01-25T12:13:41;11.65;;;5.72;;
78116;SDS011;69042;59.120;37.904;2024-01-25T12:16:08;15.57;;;5.90;;
78116;SDS011;69042;59.120;37.904;2024-01-25T12:18:36;15.18;;;6.57;;
78116;SDS011;69042;59.120;37.904;2024-01-25T12:21:04;12.73;;;5.65;;
78116;SDS011;69042;59.120;37.904;2024-01-25T12:26:02;13.18;;;5.93;;
78116;SDS011;69042;59.120;37.904;2024-01-25T12:28:29;13.70;;;6.07;;
78116;SDS011;69042;59.120;37.904;2024-01-25T12:30:56;12.10;;;5.25;;
78116;SDS011;69042;59.120;37.904;2024-01-25T12:33:23;12.32;;;5.80;;
78116;SDS011;69042;59.120;37.904;2024-01-25T12:35:50;13.77;;;5.82;;
78116;SDS011;69042;59.120;37.904;2024-01-25T12:38:16;13.35;;;5.43;;
78116;SDS011;69042;59.120;37.904;2024-01-25T12:40:46;12.70;;;5.68;;
78116;SDS011;69042;59.120;37.904;2024-01-25T12:43:14;16.27;;;6.82;;
78116;SDS011;69042;59.120;37.904;2024-01-25T12:45:41;13.25;;;5.22;;
78116;SDS011;69042;59.120;37.904;2024-01-25T12:48:08;14.63;;;6.05;;
78116;SDS011;69042;59.120;37.904;2024-01-25T12:50:35;13.18;;;5.75;;
78116;SDS011;69042;59.120;37.904;2024-01-25T12:53:01;11.57;;;5.28;;
78116;SDS011;69042;59.120;37.904;2024-01-25T12:55:29;12.95;;;5.75;;
78116;SDS011;69042;59.120;37.904;2024-01-25T12:57:56;13.48;;;5.97;;
78116;SDS011;69042;59.120;37.904;2024-01-25T13:00:23;12.07;;;5.68;;
78116;SDS011;69042;59.120;37.904;2024-01-25T13:02:49;13.82;;;6.20;;
78116;SDS011;69042;59.120;37.904;2024-01-25T13:05:16;14.55;;;6.05;;
78116;SDS011;69042;59.120;37.904;2024-01-25T13:07:42;13.75;;;6.05;;
78116;SDS011;69042;59.120;37.904;2024-01-25T13:10:09;16.38;;;7.07;;
78116;SDS011;69042;59.120;37.904;2024-01-25T13:12:37;14.30;;;6.80;;
78116;SDS011;69042;59.120;37.904;2024-01-25T13:15:04;15.90;;;7.53;;
78116;SDS011;69042;59.120;37.904;2024-01-25T13:17:34;16.08;;;6.85;;
78116;SDS011;69042;59.120;37.904;2024-01-25T13:20:04;15.38;;;6.78;;
78116;SDS011;69042;59.120;37.904;2024-01-25T13:22:34;13.30;;;5.68;;
78116;SDS011;69042;59.120;37.904;2024-01-25T13:25:00;15.85;;;6.85;;
78116;SDS011;69042;59.120;37.904;2024-01-25T13:27:28;16.45;;;6.88;;
78116;SDS011;69042;59.120;37.904;2024-01-25T13:29:54;13.68;;;5.85;;
78116;SDS011;69042;59.120;37.904;2024-01-25T13:32:22;15.23;;;7.05;;
78116;SDS011;69042;59.120;37.904;2024-01-25T13:34:49;14.68;;;6.35;;
78116;SDS011;69042;59.120;37.904;2024-01-25T13:37:16;15.60;;;6.18;;
78116;SDS011;69042;59.120;37.904;2024-01-25T13:39:42;14.63;;;6.45;;
78116;SDS011;69042;59.120;37.904;2024-01-25T13:42:09;14.27;;;6.68;;
78116;SDS011;69042;59.120;37.904;2024-01-25T13:44:36;16.85;;;6.30;;
78116;SDS011;69042;59.120;37.904;2024-01-25T13:47:04;13.32;;;6.03;;
78116;SDS011;69042;59.120;37.904;2024-01-25T13:49:31;13.75;;;5.75;;
78116;SDS011;69042;59.120;37.904;2024-01-25T13:51:59;14.50;;;5.95;;
78116;SDS011;69042;59.120;37.904;2024-01-25T13:54:27;14.05;;;6.07;;
78116;SDS011;69042;59.120;37.904;2024-01-25T13:56:54;14.00;;;5.97;;
78116;SDS011;69042;59.120;37.904;2024-01-25T13:59:21;14.55;;;6.07;;
78116;SDS011;69042;59.120;37.904;2024-01-25T14:01:47;13.13;;;5.25;;
78116;SDS011;69042;59.120;37.904;2024-01-25T14:04:15;15.55;;;6.30;;
78116;SDS011;69042;59.120;37.904;2024-01-25T14:06:41;14.90;;;5.95;;
78116;SDS011;69042;59.120;37.904;2024-01-25T14:09:08;16.92;;;6.70;;
78116;SDS011;69042;59.120;37.904;2024-01-25T14:11:34;14.93;;;5.82;;
78116;SDS011;69042;59.120;37.904;2024-01-25T14:14:00;14.45;;;5.57;;
78116;SDS011;69042;59.120;37.904;2024-01-25T14:16:27;13.65;;;5.65;;
78116;SDS011;69042;59.120;37.904;2024-01-25T14:18:53;13.35;;;5.55;;
78116;SDS011;69042;59.120;37.904;2024-01-25T14:21:19;16.77;;;6.57;;
78116;SDS011;69042;59.120;37.904;2024-01-25T14:23:46;13.20;;;5.47;;
78116;SDS011;69042;59.120;37.904;2024-01-25T14:26:13;15.52;;;6.05;;
78116;SDS011;69042;59.120;37.904;2024-01-25T14:28:39;16.02;;;6.32;;
78116;SDS011;69042;59.120;37.904;2024-01-25T14:31:05;15.32;;;6.00;;
78116;SDS011;69042;59.120;37.904;2024-01-25T14:33:31;15.27;;;6.60;;
78116;SDS011;69042;59.120;37.904;2024-01-25T14:35:57;14.88;;;6.05;;
78116;SDS011;69042;59.120;37.904;2024-01-25T14:38:24;14.57;;;6.13;;